Terminal Aerodrome Forecast
Issued by NWS

Home | Current Version | Previous Version | Text Only | Print | Product List | Glossary On
Versions: 1 2 3 4 5 6 7 8 9 10 11 12 13 14
000
FTUS43 KAPX 211120
TAFMBL
TAF
KMBL 211120Z 2112/2212 VRB04KT P6SM SCT090 BKN200
     FM211700 23006KT P6SM BKN250
     FM220600 20005KT 6SM -SHRA BR BKN050 OVC080
     FM220800 25007KT 5SM -SHRA BR SCT040 OVC060
     FM221100 27005KT P6SM VCSH OVC015=

USA.gov is the U.S. government's official web portal to all federal, state and local government web resources and services.